Flight Track Log - Related Links

Times and Time Zones

All times are in EDT time to prevent confusion due to time zone crossing. See the N4455M flight status page for this flight to view local times or setup timezone preferences in your user account.

Time Position Orientation Groundspeed Altitude Reporting Facility
EDT Latitude Longitude Course Direction KTS MPH feet Rate Location/Type
Tue 08:01:40 AM 31.2983 -81.4703 317° Northwest 115 132 1,500  Level Jacksonville Center
Tue 08:02:00 AM 31.3556 -81.5712 317° Northwest  Level FlightAware Approximate
Tue 08:02:40 AM 31.3175 -81.4967 310° West 99 114 2,000  Level Jacksonville Center
Tue 08:03:40 AM 31.3322 -81.5208 306° West 99 114 2,500 450 Climbing Jacksonville Center
Tue 08:04:40 AM 31.3472 -81.5472 304° West 99 114 2,900 400 Climbing Jacksonville Center
Tue 08:05:40 AM 31.3661 -81.5664 319° Northwest 93 107 3,300 400 Climbing Jacksonville Center
Tue 08:06:40 AM 31.3853 -81.5881 316° Northwest 99 114 3,700 500 Climbing Jacksonville Center
Tue 08:07:40 AM 31.4064 -81.6122 316° Northwest 99 114 4,300 550 Climbing Jacksonville Center
Tue 08:08:40 AM 31.4275 -81.6339 319° Northwest 94 108 4,800 450 Climbing Jacksonville Center
Tue 08:09:40 AM 31.4486 -81.6506 326° Northwest 94 108 5,200 400 Climbing Jacksonville Center
Tue 08:10:40 AM 31.4694 -81.6697 322° Northwest 100 115 5,600 400 Climbing Jacksonville Center
Tue 08:11:40 AM 31.4947 -81.6914 324° Northwest 100 115 6,000 200 Climbing Jacksonville Center
Tue 08:12:40 AM 31.5181 -81.7203 313° West 118 136 6,000  Level Jacksonville Center
Tue 08:13:40 AM 31.5456 -81.7469 320° Northwest 123 142 6,000  Level Jacksonville Center
Tue 08:14:40 AM 31.5667 -81.7733 313° West 118 136 6,000 -50 Level Jacksonville Center
Tue 08:15:40 AM 31.5939 -81.7950 326° Northwest 118 136 5,900  Descending Jacksonville Center
Tue 08:16:40 AM 31.6214 -81.8214 321° Northwest 118 136 6,000 50 Climbing Jacksonville Center
Tue 08:17:40 AM 31.6464 -81.8431 324° Northwest 112 129 6,000  Level Jacksonville Center
Tue 08:18:40 AM 31.6739 -81.8625 329° Northwest 112 129 6,000 50 Level Jacksonville Center
Tue 08:19:40 AM 31.6969 -81.8842 321° Northwest 112 129 6,100  Climbing Jacksonville Center
Tue 08:20:40 AM 31.7222 -81.9058 324° Northwest 112 129 6,000  Descending Jacksonville Center
Tue 08:21:40 AM 31.7494 -81.9300 323° Northwest 112 129 6,100 50 Climbing Jacksonville Center
Tue 08:22:40 AM 31.7747 -81.9542 321° Northwest 112 129 6,100  Level Jacksonville Center
Tue 08:23:40 AM 31.7958 -81.9833 310° West 117 135 6,100  Level Jacksonville Center
Tue 08:24:40 AM 31.8147 -82.0100 310° West 117 135 6,100  Level Jacksonville Center
Tue 08:25:40 AM 31.8381 -82.0392 313° West 117 135 6,100  Level Jacksonville Center
Tue 08:26:40 AM 31.8653 -82.0706 316° Northwest 117 135 6,100 -50 Level Jacksonville Center
Tue 08:27:40 AM 31.8883 -82.0972 316° Northwest 117 135 6,000 -50 Descending Jacksonville Center
Tue 08:28:40 AM 31.9094 -82.1217 315° West 117 135 6,000  Level Jacksonville Center
Tue 08:29:40 AM 31.9347 -82.1483 318° Northwest 117 135 6,000 -50 Level Jacksonville Center
Tue 08:30:40 AM 31.9642 -82.1750 322° Northwest 117 135 5,900 -50 Descending Jacksonville Center
Tue 08:31:40 AM 31.9872 -82.2019 315° West 117 135 5,900  Level Jacksonville Center
Tue 08:32:40 AM 32.0061 -82.2311 307° West 117 135 5,900  Level Jacksonville Center
Tue 08:33:40 AM 32.0272 -82.2556 316° Northwest 117 135 5,900  Level Jacksonville Center
Tue 08:34:40 AM 32.0481 -82.2847 310° West 117 135 5,900 50 Level Jacksonville Center
Tue 08:35:40 AM 32.0753 -82.3089 323° Northwest 112 129 6,000  Climbing Jacksonville Center
Tue 08:36:40 AM 32.0964 -82.3408 308° West 119 137 5,900 -50 Descending Jacksonville Center
Tue 08:37:40 AM 32.1258 -82.3653 325° Northwest 119 137 5,900  Level Jacksonville Center
Tue 08:38:40 AM 32.1489 -82.3894 318° Northwest 119 137 5,900  Level Jacksonville Center
Tue 08:39:40 AM 32.1697 -82.4189 310° West 119 137 5,900 50 Level Jacksonville Center
Tue 08:40:40 AM 32.1908 -82.4433 316° Northwest 119 137 6,000  Climbing Jacksonville Center
Tue 08:41:40 AM 32.2158 -82.4703 318° Northwest 119 137 5,900 -50 Descending Jacksonville Center
Tue 08:42:40 AM 32.2411 -82.4947 321° Northwest 119 137 5,900  Level Jacksonville Center
Tue 08:43:40 AM 32.2661 -82.5217 318° Northwest 119 137 5,900 50 Level Jacksonville Center
Tue 08:44:40 AM 32.2914 -82.5461 321° Northwest 119 137 6,000  Climbing Jacksonville Center
Tue 08:45:40 AM 32.3186 -82.5756 318° Northwest 119 137 5,900 -50 Descending Jacksonville Center
Tue 08:46:40 AM 32.3436 -82.5975 323° Northwest 119 137 5,900  Level Jacksonville Center
Tue 08:49:05 AM 32.4000 -82.6333 332° Northwest 120 138 5,900  Level Atlanta TRACON
Tue 08:49:59 AM 32.4333 -82.6667 320° Northwest 118 136 5,900 56 Level Atlanta TRACON
Tue 08:50:53 AM 32.4500 -82.7000 301° West 117 135 6,000 53 Climbing Atlanta TRACON
Tue 08:51:53 AM 32.4833 -82.7167 337° Northwest 121 139 6,000  Level Atlanta TRACON
Tue 08:52:47 AM 32.5000 -82.7500 301° West 117 135 6,000  Level Atlanta TRACON
Tue 08:53:47 AM 32.5167 -82.7667 320° Northwest 119 137 6,000  Level Atlanta TRACON
Tue 08:54:47 AM 32.5500 -82.8000 320° Northwest 118 136 6,000  Level Atlanta TRACON
Tue 08:55:41 AM 32.5667 -82.8167 320° Northwest 118 136 6,000  Level Atlanta TRACON
Tue 08:56:41 AM 32.5833 -82.8500 301° West 116 133 6,000  Level Atlanta TRACON
Tue 08:57:41 AM 32.6167 -82.8667 337° Northwest 121 139 6,000 -50 Level Atlanta TRACON
Tue 08:58:41 AM 32.6333 -82.9000 301° West 116 133 5,900 -50 Descending Atlanta TRACON
Tue 08:59:41 AM 32.6667 -82.9333 320° Northwest 115 132 5,900 53 Level Atlanta TRACON
Tue 09:00:35 AM 32.6833 -82.9500 320° Northwest 114 131 6,000 53 Climbing Atlanta TRACON
Tue 09:01:35 AM 32.7000 -82.9833 301° West 116 133 6,000 50 Level Atlanta TRACON
Tue 09:02:35 AM 32.7333 -83.0000 337° Northwest 117 135 6,100 50 Climbing Atlanta TRACON
Tue 09:03:35 AM 32.7500 -83.0333 301° West 117 135 6,100  Level Atlanta TRACON
Tue 09:04:35 AM 32.7667 -83.0500 320° Northwest 116 133 6,100  Level Atlanta TRACON
Tue 09:05:35 AM 32.8000 -83.0667 337° Northwest 117 135 6,100 50 Level Atlanta TRACON
Tue 09:06:35 AM 32.8167 -83.1000 301° West 117 135 6,200  Climbing Atlanta TRACON
Tue 09:07:35 AM 32.8500 -83.1333 320° Northwest 118 136 6,100 -100 Descending Atlanta TRACON
Tue 09:08:35 AM 32.8667 -83.1500 320° Northwest 120 138 6,000 -50 Descending Atlanta TRACON
Tue 09:09:35 AM 32.8833 -83.1833 301° West 120 138 6,000 -50 Level Atlanta TRACON
Tue 09:10:35 AM 32.9167 -83.2000 337° Northwest 120 138 5,900 -50 Descending Atlanta TRACON
Tue 09:11:35 AM 32.9500 -83.2333 320° Northwest 123 142 5,900  Level Atlanta TRACON
Tue 09:12:35 AM 32.9667 -83.2500 320° Northwest 121 139 5,900  Level Atlanta TRACON
Tue 09:13:35 AM 33.0000 -83.2667 337° Northwest 117 135 5,900 50 Level Atlanta TRACON
Tue 09:14:35 AM 33.0167 -83.3000 301° West 116 133 6,000 50 Climbing Atlanta TRACON
Tue 09:15:35 AM 33.0500 -83.3167 337° Northwest 117 135 6,000  Level Atlanta TRACON
Tue 09:16:35 AM 33.0667 -83.3500 301° West 118 136 6,000  Level Atlanta TRACON
Tue 09:17:35 AM 33.1000 -83.3667 337° Northwest 118 136 6,000 50 Level Atlanta TRACON
Tue 09:18:35 AM 33.1167 -83.4000 301° West 118 136 6,100 50 Climbing Atlanta TRACON
Tue 09:19:35 AM 33.1500 -83.4167 337° Northwest 119 137 6,100  Level Atlanta TRACON
Tue 09:20:35 AM 33.1833 -83.4500 320° Northwest 119 137 6,100  Level Atlanta TRACON
Tue 09:21:36 AM 33.2000 -83.4667 320° Northwest 117 135 6,100  Level Atlanta TRACON
Tue 09:22:36 AM 33.2167 -83.5000 301° West 119 137 6,100  Level Atlanta TRACON
Tue 09:23:36 AM 33.2500 -83.5167 337° Northwest 116 133 6,100  Level Atlanta TRACON
Tue 09:24:36 AM 33.2667 -83.5500 301° West 118 136 6,100  Level Atlanta TRACON
Tue 09:25:36 AM 33.3000 -83.5667 337° Northwest 125 144 6,100  Level Atlanta TRACON
Tue 09:26:36 AM 33.3167 -83.6000 301° West 120 138 6,100  Level Atlanta TRACON
Tue 09:27:36 AM 33.3333 -83.6167 320° Northwest 119 137 6,100  Level Atlanta TRACON
Tue 09:28:36 AM 33.3667 -83.6500 320° Northwest 117 135 6,100  Level Atlanta TRACON
Tue 09:29:36 AM 33.4000 -83.6667 337° Northwest 124 143 6,100 -33 Level Atlanta TRACON
Tue 09:31:36 AM 33.4667 -83.7000 337° Northwest 136 157 6,000 -133 Descending Atlanta TRACON
Tue 09:32:36 AM 33.5000 -83.7000 360° North 132 152 5,700 -250 Descending Atlanta TRACON
Tue 09:33:36 AM 33.5333 -83.7167 337° Northwest 135 155 5,500 -200 Descending Atlanta TRACON
Tue 09:34:36 AM 33.5667 -83.7167 360° North 136 157 5,300 -200 Descending Atlanta TRACON
Tue 09:35:36 AM 33.6000 -83.7333 337° Northwest 131 151 5,100 -200 Descending Atlanta TRACON
Tue 09:36:36 AM 33.6500 -83.7333 360° North 127 146 4,900 -250 Descending Atlanta TRACON
Tue 09:37:36 AM 33.6833 -83.7500 337° Northwest 125 144 4,600 -250 Descending Atlanta TRACON
Tue 09:38:36 AM 33.7000 -83.7667 320° Northwest 119 137 4,400 -250 Descending Atlanta TRACON
Tue 09:39:36 AM 33.7333 -83.7833 337° Northwest 123 142 4,100 -150 Descending Atlanta TRACON
Tue 09:40:36 AM 33.7667 -83.8167 320° Northwest 118 136 4,100 -50 Level Atlanta TRACON
Tue 09:41:36 AM 33.7833 -83.8333 320° Northwest 119 137 4,000 -50 Descending Atlanta TRACON
Tue 09:42:36 AM 33.8167 -83.8500 337° Northwest 119 137 4,000 50 Level Atlanta TRACON
Tue 09:43:36 AM 33.8333 -83.8833 301° West 111 128 4,100 50 Climbing Atlanta TRACON
Tue 09:44:36 AM 33.8500 -83.9000 320° Northwest 106 122 4,100  Level Atlanta TRACON
Tue 09:45:36 AM 33.8667 -83.9333 301° West 106 122 4,100  Level Atlanta TRACON
Tue 09:46:36 AM 33.8833 -83.9667 301° West 105 121 4,100  Level Atlanta TRACON
Tue 09:47:36 AM 33.9167 -83.9833 337° Northwest 110 127 4,100 50 Level Atlanta TRACON
Tue 09:48:36 AM 33.9333 -84.0167 301° West 106 122 4,200 50 Climbing Atlanta TRACON
Tue 09:49:36 AM 33.9500 -84.0500 301° West 110 127 4,200 -50 Level Atlanta TRACON
Tue 09:50:36 AM 33.9667 -84.0833 301° West 109 125 4,100 -250 Descending Atlanta TRACON
Tue 09:51:36 AM 33.9833 -84.1000 320° Northwest 117 135 3,700 -350 Descending Atlanta TRACON
Tue 09:52:36 AM 34.0000 -84.1333 301° West 115 132 3,400 -250 Descending Atlanta TRACON
Tue 09:53:36 AM 34.0000 -84.1667 270° West 111 128 3,200 -143 Descending Atlanta TRACON
Tue 09:54:42 AM 34.0167 -84.2167 292° West 99 114 3,100 -48 Descending Atlanta TRACON
Tue 09:55:42 AM 34.0000 -84.2333 220° Southwest 97 112 3,100 -50 Level Atlanta TRACON
Tue 09:56:42 AM 33.9833 -84.2500 220° Southwest 100 115 3,000 -250 Descending Atlanta TRACON
Tue 09:57:42 AM 33.9500 -84.2667 203° Southwest 96 110 2,600 -500 Descending Atlanta TRACON
Tue 09:58:42 AM 33.9333 -84.2833 220° Southwest 97 112 2,000 -476 Descending Atlanta TRACON
Tue 09:59:48 AM 33.9000 -84.2833 180° South 106 122 1,600 -364 Descending Atlanta TRACON
Tue 10:01:00 AM 33.8667 -84.3000 203° Southwest  Level FlightAware Approximate
Tue 10:08:00 AM 33.8756 -84.3020 203° Southwest  Level Estimated
Tue 10:09:00 AM 33.8756 -84.3020 203° Southwest  Level Estimated

Login

Don't have an account? Register now (free) for customized features, flight alerts, and more!